Stockholm, Texas
Current Conditions -  °F | °C
As of 7:52 AM on Saturday 22 Nov 2014 (Local Time) from KHRL Reporting Station
Clear Clear  
Wind Chill: 72°   Ceiling: Unl
Heat Index: 72°   Visibility: 10mi
Dew Point: 70°   Wind: 12mph
Humidity: 93%   Direction: 130°SE
Pressure: 29.92"   Gusts: NA
Location:  26.4075°N, 97.7282°W
Report Text: KHRL 221352Z 13010KT 10SM CLR 22/21 A2992 RMK AO2 SLP130 T02220211
Loading
Personal Weather Stations






























Interactive Weather Map New forecast layout! Learn more

10-Day Weather Forecast

Advertisements
Track Severe Weather on mobile